Flight Track Log - Related Links

Times and Time Zones

All times are in EST time to prevent confusion due to time zone crossing. See the N1250V flight status page for this flight to view local times or setup timezone preferences in your user account.

Time Position Orientation Groundspeed Altitude Reporting Facility
EST Latitude Longitude Course Direction KTS MPH feet Rate Location/Type
Sat 10:31:08 AM 39.0833 -84.4167 201° Southwest 128 147 1,000  Level Cincinnati TRACON
Sat 10:32:14 AM 39.0500 -84.4333 201° Southwest 170 196 2,500 750 Climbing Cincinnati TRACON
Sat 10:33:08 AM 39.0000 -84.4500 195° South 190 219 2,500 1,056 Level Cincinnati TRACON
Sat 10:34:02 AM 38.9500 -84.4667 195° South 184 212 4,400 2,131 Climbing Cincinnati TRACON
Sat 10:34:55 AM 38.9200 -84.4872 208° Southwest 154 177 6,300 2,035 Climbing Indianapolis Center
Sat 10:35:57 AM 38.8758 -84.5022 195° South 163 188 8,300 1,887 Climbing Indianapolis Center
Sat 10:36:59 AM 38.8289 -84.5172 194° South 172 198 10,200 1,952 Climbing Indianapolis Center
Sat 10:38:03 AM 38.7664 -84.5308 190° South 190 219 12,400 1,951 Climbing Indianapolis Center
Sat 10:39:02 AM 38.7089 -84.5144 167° South 209 241 14,200 1,488 Climbing Indianapolis Center
Sat 10:40:04 AM 38.6533 -84.4989 168° South 204 235 15,400 1,258 Climbing Indianapolis Center
Sat 10:41:06 AM 38.5939 -84.4842 169° South 205 236 16,800 1,161 Climbing Indianapolis Center
Sat 10:42:08 AM 38.5358 -84.4744 173° South 208 239 17,800 1,073 Climbing Indianapolis Center
Sat 10:43:09 AM 38.4767 -84.4628 171° South 213 245 19,000 1,073 Climbing Indianapolis Center
Sat 10:44:11 AM 38.4178 -84.4444 166° South 217 250 20,000 968 Climbing Indianapolis Center
Sat 10:45:13 AM 38.3558 -84.4344 173° South 223 257 21,000 1,024 Climbing Indianapolis Center
Sat 10:46:14 AM 38.2781 -84.4136 168° South 242 278 22,100 1,024 Climbing Indianapolis Center
Sat 10:47:16 AM 38.2058 -84.3997 171° South 257 296 23,100 871 Climbing Indianapolis Center
Sat 10:48:18 AM 38.1319 -84.3822 169° South 268 308 23,900 780 Climbing Indianapolis Center
Sat 10:49:19 AM 38.0550 -84.3650 170° South 278 320 24,700 537 Climbing Indianapolis Center
Sat 10:50:21 AM 37.9736 -84.3472 170° South 295 339 25,000 581 Climbing Indianapolis Center
Sat 10:51:23 AM 37.8892 -84.3275 170° South 307 353 25,900 732 Climbing Indianapolis Center
Sat 10:52:24 AM 37.8061 -84.3106 171° South 304 350 26,500 585 Climbing Indianapolis Center
Sat 10:53:26 AM 37.7075 -84.2875 170° South 308 354 27,100 677 Climbing Indianapolis Center
Sat 10:54:28 AM 37.6231 -84.2686 170° South 308 354 27,900 780 Climbing Indianapolis Center
Sat 10:55:29 AM 37.5411 -84.2489 169° South 301 346 28,700 780 Climbing Indianapolis Center
Sat 10:56:31 AM 37.4603 -84.2322 171° South 296 341 29,500 726 Climbing Indianapolis Center
Sat 10:57:33 AM 37.3833 -84.2147 170° South 285 328 30,200 634 Climbing Indianapolis Center
Sat 10:58:34 AM 37.3047 -84.1972 170° South 285 328 30,800 537 Climbing Indianapolis Center
Sat 10:59:36 AM 37.2139 -84.1775 170° South 284 327 31,300 484 Climbing Indianapolis Center
Sat 11:00:38 AM 37.1375 -84.1606 170° South 282 325 31,800 439 Climbing Indianapolis Center
Sat 11:01:39 AM 37.0586 -84.1425 170° South 285 328 32,200 390 Climbing Indianapolis Center
Sat 11:02:41 AM 36.9786 -84.1261 171° South 289 333 32,600 387 Climbing Indianapolis Center
Sat 11:03:43 AM 36.8997 -84.1086 170° South 289 333 33,000 195 Climbing Indianapolis Center
Sat 11:04:44 AM 36.8167 -84.0914 171° South 298 343 33,000  Level Indianapolis Center
Sat 11:05:46 AM 36.7311 -84.0728 170° South 309 356 33,000  Level Indianapolis Center
Sat 11:06:47 AM 36.6317 -84.0733 180° South 304 350 33,000  Level Indianapolis Center
Sat 11:07:49 AM 36.5489 -84.0842 186° South 301 346 33,000  Level Indianapolis Center
Sat 11:08:51 AM 36.4717 -84.0947 186° South 306 352 33,000  Level Indianapolis Center
Sat 11:09:52 AM 36.3672 -84.1067 185° South 311 358 33,000  Level Indianapolis Center
Sat 11:10:54 AM 36.2806 -84.1175 186° South 313 360 33,000  Level Indianapolis Center
Sat 11:11:56 AM 36.1939 -84.1289 186° South 311 358 33,000  Level Indianapolis Center
Sat 11:12:57 AM 36.1072 -84.1381 185° South 311 358 33,000  Level Indianapolis Center
Sat 11:13:39 AM 36.0519 -84.1467 187° South 311 358 33,000  Level Atlanta Center
Sat 11:14:39 AM 35.9664 -84.1567 185° South 311 358 33,000  Level Atlanta Center
Sat 11:15:39 AM 35.8808 -84.1669 186° South 311 358 33,000  Level Atlanta Center
Sat 11:16:39 AM 35.7953 -84.1769 185° South 311 358 33,000  Level Atlanta Center
Sat 11:17:39 AM 35.7119 -84.1869 186° South 311 358 33,000  Level Atlanta Center
Sat 11:18:39 AM 35.6264 -84.1997 187° South 311 358 33,000  Level Atlanta Center
Sat 11:19:39 AM 35.5408 -84.2072 184° South 311 358 33,000  Level Atlanta Center
Sat 11:20:39 AM 35.4572 -84.2197 187° South 311 358 33,000 200 Level Atlanta Center
Sat 11:21:39 AM 35.3761 -84.2297 186° South 311 358 33,400 350 Climbing Atlanta Center
Sat 11:22:39 AM 35.2925 -84.2397 186° South 311 358 33,700 300 Climbing Atlanta Center
Sat 11:23:39 AM 35.2133 -84.2497 186° South 306 352 34,000 400 Climbing Atlanta Center
Sat 11:24:39 AM 35.1339 -84.2597 186° South 301 346 34,500 400 Climbing Atlanta Center
Sat 11:25:39 AM 35.0547 -84.2697 186° South 290 334 34,800 250 Climbing Atlanta Center
Sat 11:26:39 AM 34.9772 -84.2769 184° South 290 334 35,000 100 Climbing Atlanta Center
Sat 11:27:39 AM 34.8939 -84.2869 186° South 285 328 35,000  Level Atlanta Center
Sat 11:28:39 AM 34.8125 -84.2944 184° South 290 334 35,000  Level Atlanta Center
Sat 11:29:39 AM 34.7289 -84.3042 185° South 295 339 35,000  Level Atlanta Center
Sat 11:30:39 AM 34.6456 -84.3164 187° South 295 339 35,000  Level Atlanta Center
Sat 11:31:39 AM 34.5578 -84.3264 185° South 301 346 35,000  Level Atlanta Center
Sat 11:32:39 AM 34.4742 -84.3361 185° South 307 353 35,000  Level Atlanta Center
Sat 11:33:39 AM 34.3969 -84.3458 186° South 312 359 35,000  Level Atlanta Center
Sat 11:34:39 AM 34.3114 -84.3556 185° South 312 359 35,000  Level Atlanta Center
Sat 11:35:39 AM 34.2281 -84.3653 186° South 312 359 35,000  Level Atlanta Center
Sat 11:36:39 AM 34.1467 -84.3750 186° South 312 359 35,000  Level Atlanta Center
Sat 11:37:39 AM 34.0547 -84.3872 186° South 317 365 35,000  Level Atlanta Center
Sat 11:38:39 AM 33.9692 -84.3994 187° South 317 365 35,000  Level Atlanta Center
Sat 11:39:39 AM 33.8856 -84.4017 181° South 310 357 35,000  Level Atlanta Center
Sat 11:40:39 AM 33.7917 -84.4014 180° South 318 366 35,000  Level Atlanta Center
Sat 11:41:39 AM 33.6956 -84.4008 180° South 324 373 35,000  Level Atlanta Center
Sat 11:42:39 AM 33.6164 -84.4006 180° South 324 373 35,000  Level Atlanta Center
Sat 11:43:39 AM 33.5286 -84.4003 180° South 324 373 35,000  Level Atlanta Center
Sat 11:44:39 AM 33.4431 -84.3972 178° South 324 373 35,000  Level Atlanta Center
Sat 11:45:39 AM 33.3553 -84.3994 181° South 319 367 35,000  Level Atlanta Center
Sat 11:46:39 AM 33.2697 -84.3992 180° South 314 361 35,000  Level Atlanta Center
Sat 11:47:39 AM 33.1800 -84.3986 180° South 314 361 35,000  Level Atlanta Center
Sat 11:48:39 AM 33.0944 -84.3958 178° South 314 361 35,000  Level Atlanta Center
Sat 11:49:39 AM 32.9983 -84.3981 181° South 309 356 35,000  Level Atlanta Center
Sat 11:50:39 AM 32.9128 -84.3975 180° South 309 356 35,000  Level Atlanta Center
Sat 11:51:39 AM 32.8231 -84.3972 180° South 309 356 35,000  Level Atlanta Center
Sat 11:52:39 AM 32.7458 -84.3944 178° South 309 356 35,000  Level Atlanta Center
Sat 11:53:39 AM 32.6603 -84.3917 178° South 309 356 35,000  Level Atlanta Center
Sat 11:54:39 AM 32.5728 -84.3914 180° South 309 356 35,000  Level Atlanta Center
Sat 11:55:39 AM 32.4872 -84.3911 180° South 309 356 35,000  Level Atlanta Center
Sat 11:56:39 AM 32.4014 -84.3906 180° South 309 356 35,000  Level Atlanta Center
Sat 11:57:39 AM 32.3139 -84.3903 180° South 309 356 35,000  Level Atlanta Center
Sat 11:59:31 AM 32.1389 -84.3892 180° South 302 348 35,000  Level Jacksonville Center
Sat 12:00:31 PM 32.0514 -84.3756 172° South 307 353 35,000  Level Jacksonville Center
Sat 12:01:31 PM 31.9639 -84.3544 168° South 319 367 35,000  Level Jacksonville Center
Sat 12:02:31 PM 31.8744 -84.3358 170° South 324 373 35,000  Level Jacksonville Center
Sat 12:03:31 PM 31.7869 -84.3175 170° South 324 373 35,000  Level Jacksonville Center
Sat 12:04:31 PM 31.6972 -84.2989 170° South 324 373 35,000  Level Jacksonville Center
Sat 12:05:31 PM 31.6078 -84.2806 170° South 329 379 35,000  Level Jacksonville Center
Sat 12:06:31 PM 31.5203 -84.2597 169° South 329 379 35,000  Level Jacksonville Center
Sat 12:07:31 PM 31.4308 -84.2414 170° South 329 379 35,000  Level Jacksonville Center
Sat 12:08:31 PM 31.3411 -84.2231 170° South 329 379 35,000  Level Jacksonville Center
Sat 12:09:31 PM 31.2536 -84.2025 169° South 329 379 35,000  Level Jacksonville Center
Sat 12:10:31 PM 31.1642 -84.1817 169° South 329 379 35,000  Level Jacksonville Center
Sat 12:11:31 PM 31.0725 -84.1636 170° South 334 384 35,000  Level Jacksonville Center
Sat 12:12:31 PM 30.9828 -84.1453 170° South 334 384 35,000  Level Jacksonville Center
Sat 12:13:31 PM 30.8933 -84.1247 169° South 334 384 35,000  Level Jacksonville Center
Sat 12:14:31 PM 30.8036 -84.1044 169° South 334 384 35,000  Level Jacksonville Center
Sat 12:15:31 PM 30.7119 -84.0839 169° South 334 384 35,000  Level Jacksonville Center
Sat 12:16:31 PM 30.6222 -84.0658 170° South 334 384 35,000  Level Jacksonville Center
Sat 12:17:31 PM 30.5369 -84.0478 170° South 329 379 35,000  Level Jacksonville Center
Sat 12:18:31 PM 30.4453 -84.0297 170° South 329 379 35,000  Level Jacksonville Center
Sat 12:19:31 PM 30.3556 -84.0094 169° South 329 379 35,000  Level Jacksonville Center
Sat 12:20:31 PM 30.2722 -83.9917 170° South 337 388 35,000  Level Jacksonville Center
Sat 12:21:31 PM 30.1825 -83.9714 169° South 337 388 35,000  Level Jacksonville Center
Sat 12:22:31 PM 30.0950 -83.9514 169° South 332 382 35,000  Level Jacksonville Center
Sat 12:23:31 PM 30.0056 -83.9217 164° South 332 382 35,000  Level Jacksonville Center
Sat 12:24:31 PM 29.9161 -83.8942 165° South 332 382 35,000  Level Jacksonville Center
Sat 12:25:31 PM 29.8286 -83.8647 164° South 332 382 35,000  Level Jacksonville Center
Sat 12:26:31 PM 29.7389 -83.8350 164° South 337 388 35,000  Level Jacksonville Center
Sat 12:27:31 PM 29.6494 -83.8056 164° South 337 388 35,000  Level Jacksonville Center
Sat 12:28:31 PM 29.5619 -83.7783 165° South 337 388 35,000  Level Jacksonville Center
Sat 12:29:31 PM 29.4744 -83.7489 164° South 337 388 35,000  Level Jacksonville Center
Sat 12:30:31 PM 29.3850 -83.7197 164° South 337 388 35,000  Level Jacksonville Center
Sat 12:31:31 PM 29.2975 -83.6928 165° South 337 388 35,000  Level Jacksonville Center
Sat 12:32:31 PM 29.2119 -83.6633 163° South 337 388 35,000  Level Jacksonville Center
Sat 12:33:31 PM 29.1225 -83.6367 165° South 337 388 35,000  Level Jacksonville Center
Sat 12:34:31 PM 29.0369 -83.6075 163° South 331 381 35,000  Level Jacksonville Center
Sat 12:35:31 PM 28.9494 -83.5808 165° South 331 381 35,000  Level Jacksonville Center
Sat 12:36:31 PM 28.8600 -83.5492 163° South 331 381 35,000  Level Jacksonville Center
Sat 12:39:59 PM 28.5456 -83.4481 164° South 333 383 35,000  Level Miami Center
Sat 12:40:59 PM 28.4589 -83.4264 168° South 333 383 35,000  Level Miami Center
Sat 12:41:59 PM 28.3708 -83.3908 160° South 333 383 35,000  Level Miami Center
Sat 12:42:59 PM 28.2989 -83.3722 167° South 333 383 35,000 -350 Level Miami Center
Sat 12:43:59 PM 28.1989 -83.3667 177° South 333 383 34,300 -1,050 Descending Miami Center
Sat 12:44:59 PM 28.1028 -83.3728 183° South 338 389 32,900 -1,150 Descending Miami Center
Sat 12:45:59 PM 28.0008 -83.3692 178° South 356 410 32,000 -900 Descending Miami Center
Sat 12:46:59 PM 27.8986 -83.3658 178° South 361 415 31,100 -900 Descending Miami Center
Sat 12:47:59 PM 27.8092 -83.3183 155° Southeast 356 410 30,200 -900 Descending Miami Center
Sat 12:48:59 PM 27.7267 -83.2506 144° Southeast 356 410 29,300 -850 Descending Miami Center
Sat 12:49:59 PM 27.6400 -83.1800 144° Southeast 363 418 28,500 -1,000 Descending Miami Center
Sat 12:50:59 PM 27.5556 -83.1097 144° Southeast 378 435 27,300 -1,350 Descending Miami Center
Sat 12:51:59 PM 27.4686 -83.0419 145° Southeast 383 441 25,800 -1,450 Descending Miami Center
Sat 12:52:59 PM 27.3861 -82.9744 144° Southeast 382 440 24,400 -1,400 Descending Miami Center
Sat 12:53:59 PM 27.3053 -82.9117 145° Southeast 372 428 23,000 -1,400 Descending Miami Center
Sat 12:54:59 PM 27.2286 -82.8469 143° Southeast 360 414 21,600 -1,350 Descending Miami Center
Sat 12:55:59 PM 27.1519 -82.7847 144° Southeast 355 409 20,300 -1,100 Descending Miami Center
Sat 12:56:59 PM 27.0772 -82.7250 145° Southeast 344 396 19,400 -1,150 Descending Miami Center
Sat 12:57:59 PM 27.0022 -82.6678 146° Southeast 338 389 18,000 -1,300 Descending Miami Center
Sat 12:58:59 PM 26.9294 -82.6081 144° Southeast 331 381 16,800 -1,450 Descending Miami Center
Sat 12:59:59 PM 26.8608 -82.5536 145° Southeast 318 366 15,100 -1,750 Descending Miami Center
Sat 01:00:59 PM 26.7939 -82.4992 144° Southeast 300 345 13,300 -1,600 Descending Miami Center
Sat 01:01:59 PM 26.7272 -82.4472 145° Southeast 300 345 11,900 -1,350 Descending Miami Center
Sat 01:02:59 PM 26.6603 -82.3953 145° Southeast 285 328 10,600 -1,100 Descending Miami Center
Sat 01:03:59 PM 26.5994 -82.3483 145° Southeast 273 314 9,700 -1,000 Descending Miami Center
Sat 01:04:59 PM 26.5364 -82.3033 147° Southeast 268 308 8,600 -1,000 Descending Miami Center
Sat 01:05:59 PM 26.4756 -82.2567 146° Southeast 268 308 7,700 -850 Descending Miami Center
Sat 01:06:59 PM 26.4186 -82.2169 148° Southeast 261 300 6,900 -800 Descending Miami Center
Sat 01:08:00 PM 26.3477 -82.1623 145° Southeast  Level FlightAware Approximate
Sat 01:15:00 PM 26.1524 -81.7756 66° East  Level Estimated
Sat 01:16:00 PM 26.1524 -81.7756 66° East  Level Estimated
Sat 01:17:00 PM 26.1524 -81.7756 66° East  Level Estimated
Sat 01:18:00 PM 26.1524 -81.7756 66° East  Level Estimated
Sat 01:19:00 PM 26.1524 -81.7756 66° East  Level Estimated
Sat 01:20:00 PM 26.1524 -81.7756 66° East  Level Estimated
Sat 01:21:00 PM 26.1524 -81.7756 66° East  Level Estimated
Sat 01:22:00 PM 26.1524 -81.7756 66° East  Level Estimated
Sat 01:23:00 PM 26.1524 -81.7756 66° East  Level Estimated
Sat 01:24:00 PM 26.1524 -81.7756 66° East  Level Estimated
Sat 01:25:00 PM 26.1524 -81.7756 66° East  Level Estimated

Login

Don't have an account? Register now (free) for customized features, flight alerts, and more!